KPIM/PIM METAR and TAF weather

Enter ICAO airport designator
Station Type Date Time Source
KPIM METAR 2019/04/20 22:15 UTC NOAA

KPIM 202215Z AUTO 27010KT 10SM OVC060 14/05 A2989 RMK AO2 T01350049 PWINO


Station Type Date Time Source
KPIM Decoded METAR 2019/04/20 22:15 UTC NOAA

Station name not available
Apr 20, 2019 - 06:15 PM EDT / 2019.04.20 2215 UTC
Wind: from the W (270 degrees) at 12 MPH (10 KT):0
Visibility: 10 mile(s):0
Sky conditions: overcast
Temperature: 56.3 F (13.5 C)
Dew Point: 40.8 F (4.9 C)
Relative Humidity: 55%
Pressure (altimeter): 29.89 in. Hg (1012 hPa)
ob: KPIM 202215Z AUTO 27010KT 10SM OVC060 14/05 A2989 RMK AO2 T01350049 PWINO
cycle: 22

Station Type Date Time Source
KPIM TAF UTC NOAA

Error!

Example: see airport list